Time;durP1;ratioP1;P1;durP2;ratioP2;P2;SDS_P1;SDS_P2;PMS_P1;PMS_P2;Temp;Humidity;BMP_temperature;BMP_pressure;BME280_temperature;BME280_humidity;BME280_pressure;Samples;Min_cycle;Max_cycle;Signal;HPM_P1;HPM_P2
2022/09/04 00:00:42;;;;;;;3.47;1.57;;;16.50;99.90;;;;;;5072818;28;20455;-62
2022/09/04 00:03:20;;;;;;;2.13;1.63;;;16.30;99.90;;;;;;5072856;28;20452;-61
2022/09/04 00:05:51;;;;;;;1.97;1.83;;;16.30;99.90;;;;;;5072751;28;20443;-61
2022/09/04 00:08:41;;;;;;;4.47;1.37;;;16.30;99.90;;;;;;5072611;28;20454;-61
2022/09/04 00:11:13;;;;;;;1.87;1.57;;;16.30;99.90;;;;;;5072711;28;20481;-61
2022/09/04 00:13:44;;;;;;;2.30;1.60;;;16.20;99.90;;;;;;5072658;28;20523;-61
2022/09/04 00:16:18;;;;;;;3.10;1.80;;;16.30;99.90;;;;;;5072650;28;20897;-61
2022/09/04 00:18:52;;;;;;;1.80;1.70;;;16.20;99.90;;;;;;5072463;28;20450;-61
2022/09/04 00:21:26;;;;;;;1.60;1.50;;;16.10;99.90;;;;;;5072694;28;20451;-61
2022/09/04 00:23:58;;;;;;;2.33;1.73;;;16.10;99.90;;;;;;5072591;28;20447;-61
2022/09/04 00:26:42;;;;;;;1.97;1.67;;;16.00;99.90;;;;;;5072556;28;20448;-61
2022/09/04 00:29:15;;;;;;;2.37;1.33;;;16.10;99.90;;;;;;5072461;28;20465;-61
2022/09/04 00:31:47;;;;;;;1.70;1.60;;;16.00;99.90;;;;;;5072547;28;20574;-61
2022/09/04 00:34:31;;;;;;;1.93;1.53;;;15.90;99.90;;;;;;5072556;28;20822;-61
2022/09/04 00:37:03;;;;;;;2.47;1.53;;;16.00;99.90;;;;;;5072431;28;20458;-61
2022/09/04 00:39:38;;;;;;;2.53;1.67;;;15.90;99.90;;;;;;5072299;28;20458;-61
2022/09/04 00:42:21;;;;;;;2.20;1.50;;;15.90;99.90;;;;;;5072504;28;20447;-61
2022/09/04 00:44:57;;;;;;;4.33;1.70;;;15.80;99.90;;;;;;5072281;28;20930;-61
2022/09/04 00:47:44;;;;;;;4.67;1.77;;;15.80;99.90;;;;;;5072298;28;20542;-61
2022/09/04 00:50:43;;;;;;;1.40;1.30;;;15.70;99.90;;;;;;5072448;28;20443;-61
2022/09/04 00:53:35;;;;;;;3.80;1.40;;;15.80;99.90;;;;;;5072268;28;20487;-61
2022/09/04 00:56:26;;;;;;;2.10;1.80;;;15.70;99.90;;;;;;5073298;28;20447;-61
2022/09/04 00:59:03;;;;;;;2.73;1.50;;;15.60;99.90;;;;;;5075940;28;20447;-61
2022/09/04 01:01:29;;;;;;;1.43;1.33;;;15.80;99.90;;;;;;5075812;28;20451;-61
2022/09/04 01:04:26;;;;;;;1.70;1.60;;;15.80;99.90;;;;;;5075780;28;20451;-61
2022/09/04 01:07:08;;;;;;;5.10;1.77;;;15.70;99.90;;;;;;5075858;28;20447;-61
2022/09/04 01:09:54;;;;;;;1.83;1.40;;;15.60;99.90;;;;;;5075686;28;20474;-61
2022/09/04 01:12:32;;;;;;;2.97;1.83;;;15.50;99.90;;;;;;5075494;28;20489;-61
2022/09/04 01:15:13;;;;;;;1.93;1.60;;;15.50;99.90;;;;;;5075391;28;20454;-61
2022/09/04 01:17:46;;;;;;;1.20;1.10;;;15.50;99.90;;;;;;5075607;28;20453;-61
2022/09/04 01:20:20;;;;;;;1.40;1.30;;;15.40;99.90;;;;;;5075530;28;20447;-61
2022/09/04 01:23:09;;;;;;;1.90;1.50;;;15.40;99.90;;;;;;5075441;28;20538;-61
2022/09/04 01:26:03;;;;;;;7.83;1.57;;;15.50;99.90;;;;;;5075538;28;20451;-61
2022/09/04 01:28:36;;;;;;;1.63;1.53;;;15.50;99.90;;;;;;5075312;28;20459;-61
2022/09/04 01:31:08;;;;;;;2.10;1.20;;;15.50;99.90;;;;;;5075165;28;20462;-61
2022/09/04 01:33:42;;;;;;;1.90;1.40;;;15.30;99.90;;;;;;5075122;28;20814;-61
2022/09/04 01:36:16;;;;;;;2.90;1.30;;;15.40;99.90;;;;;;5075228;28;20469;-61
2022/09/04 01:38:49;;;;;;;1.80;1.20;;;15.30;99.90;;;;;;5075127;28;20450;-61
2022/09/04 01:41:22;;;;;;;4.13;1.53;;;15.40;99.90;;;;;;5075046;28;20522;-61
2022/09/04 01:43:50;;;;;;;1.43;1.20;;;15.30;99.90;;;;;;5074979;28;20448;-61
2022/09/04 01:46:42;;;;;;;1.70;1.33;;;15.30;99.90;;;;;;5075100;28;20458;-61
2022/09/04 01:49:19;;;;;;;4.13;2.10;;;15.30;99.90;;;;;;5074710;28;20475;-61
2022/09/04 01:51:54;;;;;;;2.30;1.27;;;15.30;99.90;;;;;;5074809;28;20554;-61
2022/09/04 01:54:36;;;;;;;1.53;1.43;;;15.30;99.90;;;;;;5074690;28;20474;-62
2022/09/04 01:57:15;;;;;;;1.60;1.50;;;15.30;99.90;;;;;;5074894;28;20824;-61
2022/09/04 01:59:56;;;;;;;2.30;1.30;;;15.40;99.90;;;;;;5074771;28;20447;-61
2022/09/04 02:02:28;;;;;;;2.17;1.40;;;15.40;99.90;;;;;;5074594;28;20453;-61
2022/09/04 02:05:02;;;;;;;3.00;1.53;;;15.30;99.90;;;;;;5074408;28;20454;-61
2022/09/04 02:07:35;;;;;;;1.43;1.33;;;15.30;99.90;;;;;;5074659;28;20530;-61
2022/09/04 02:10:11;;;;;;;1.40;1.27;;;15.30;99.90;;;;;;5074542;28;20469;-61
2022/09/04 02:12:49;;;;;;;3.40;1.50;;;15.30;99.90;;;;;;5074461;28;20481;-61
2022/09/04 02:15:28;;;;;;;2.00;1.30;;;15.30;99.90;;;;;;5074273;28;20977;-61
2022/09/04 02:18:01;;;;;;;2.10;1.27;;;15.20;99.90;;;;;;5074407;28;20474;-61
2022/09/04 02:20:30;;;;;;;3.97;2.07;;;15.10;99.90;;;;;;5074376;28;20451;-61
2022/09/04 02:23:10;;;;;;;2.07;1.40;;;15.00;99.90;;;;;;5074226;28;20497;-61
2022/09/04 02:25:44;;;;;;;3.00;1.33;;;14.90;99.90;;;;;;5074080;28;20501;-61
2022/09/04 02:28:26;;;;;;;4.40;1.07;;;15.00;99.90;;;;;;5074221;28;20449;-61
2022/09/04 02:30:58;;;;;;;1.40;1.27;;;15.00;99.90;;;;;;5074087;28;20481;-61
2022/09/04 02:33:35;;;;;;;4.20;1.50;;;14.90;99.90;;;;;;5073943;28;20840;-61
2022/09/04 02:36:09;;;;;;;5.33;1.73;;;14.90;99.90;;;;;;5073818;28;20891;-62
2022/09/04 02:38:46;;;;;;;1.57;1.27;;;14.90;99.90;;;;;;5074061;28;20485;-61
2022/09/04 02:41:20;;;;;;;3.47;1.40;;;14.90;99.90;;;;;;5073851;28;20478;-61
2022/09/04 02:44:01;;;;;;;1.30;1.17;;;14.80;99.90;;;;;;5073818;28;20451;-61
2022/09/04 02:46:36;;;;;;;3.00;1.40;;;14.70;99.90;;;;;;5073612;28;20810;-61
2022/09/04 02:49:11;;;;;;;4.70;1.50;;;14.60;99.90;;;;;;5073557;28;20474;-61
2022/09/04 02:52:00;;;;;;;2.10;1.00;;;14.60;99.90;;;;;;5073669;28;20842;-61
2022/09/04 02:54:40;;;;;;;1.33;1.20;;;14.70;99.90;;;;;;5073576;28;20451;-61
2022/09/04 02:57:17;;;;;;;1.60;1.30;;;14.70;99.90;;;;;;5073475;28;20439;-61
2022/09/04 02:59:57;;;;;;;5.20;1.37;;;14.80;99.90;;;;;;5073600;28;20470;-61
2022/09/04 03:02:29;;;;;;;3.23;1.30;;;14.70;99.90;;;;;;5073455;28;20451;-61
2022/09/04 03:05:04;;;;;;;2.20;1.33;;;14.80;99.90;;;;;;5073437;28;20450;-61
2022/09/04 03:07:34;;;;;;;1.10;1.00;;;14.80;99.90;;;;;;5073495;28;20435;-61
2022/09/04 03:10:10;;;;;;;2.03;1.23;;;14.80;99.90;;;;;;5073390;28;20842;-60
2022/09/04 03:12:44;;;;;;;2.93;1.20;;;14.70;99.90;;;;;;5073278;28;20481;-61
2022/09/04 03:15:20;;;;;;;1.20;1.10;;;14.70;99.90;;;;;;5073225;28;20447;-61
2022/09/04 03:17:56;;;;;;;3.60;1.33;;;14.70;99.90;;;;;;5073133;28;20447;-61
2022/09/04 03:20:25;;;;;;;2.43;1.30;;;14.60;99.90;;;;;;5073073;28;20814;-61
2022/09/04 03:22:58;;;;;;;1.97;1.30;;;14.60;99.90;;;;;;5073201;28;20823;-60
2022/09/04 03:25:50;;;;;;;1.40;1.20;;;14.70;99.90;;;;;;5073143;28;20473;-61
2022/09/04 03:28:25;;;;;;;4.27;1.37;;;14.60;99.90;;;;;;5072978;28;20454;-61
2022/09/04 03:30:56;;;;;;;1.20;1.10;;;14.60;99.90;;;;;;5073151;28;20443;-61
2022/09/04 03:33:30;;;;;;;1.20;1.10;;;14.60;99.90;;;;;;5072957;28;20489;-61
2022/09/04 03:36:06;;;;;;;1.20;1.10;;;14.50;99.90;;;;;;5072964;28;20452;-61
2022/09/04 03:38:48;;;;;;;1.10;1.00;;;14.60;99.90;;;;;;5072889;28;20469;-61
2022/09/04 03:41:24;;;;;;;1.40;1.10;;;14.50;99.90;;;;;;5073049;28;20458;-61
2022/09/04 03:44:05;;;;;;;2.07;1.17;;;14.40;99.90;;;;;;5073019;28;20451;-61
2022/09/04 03:46:44;;;;;;;2.30;1.30;;;14.40;99.90;;;;;;5072894;28;20530;-61
2022/09/04 03:49:19;;;;;;;1.40;1.30;;;14.40;99.90;;;;;;5072587;28;20546;-61
2022/09/04 03:51:58;;;;;;;1.63;1.53;;;14.30;99.90;;;;;;5072958;28;20457;-60
2022/09/04 03:54:47;;;;;;;0.90;0.90;;;14.20;99.90;;;;;;5072894;28;20546;-61
2022/09/04 03:57:35;;;;;;;1.63;0.90;;;14.20;99.90;;;;;;5072676;28;20452;-61
2022/09/04 04:00:07;;;;;;;2.27;1.20;;;14.00;99.90;;;;;;5072885;28;20456;-61
2022/09/04 04:02:52;;;;;;;1.30;1.20;;;14.10;99.90;;;;;;5072790;28;20455;-61
2022/09/04 04:05:27;;;;;;;4.53;1.30;;;14.10;99.90;;;;;;5072740;28;20817;-60
2022/09/04 04:08:20;;;;;;;2.13;1.50;;;14.00;99.90;;;;;;5072557;28;20451;-61
2022/09/04 04:10:56;;;;;;;3.63;1.47;;;13.90;99.90;;;;;;5072679;28;20449;-61
2022/09/04 04:13:47;;;;;;;1.40;1.30;;;13.90;99.90;;;;;;5072572;28;20479;-61
2022/09/04 04:16:29;;;;;;;2.23;1.43;;;14.00;99.90;;;;;;5072457;28;20780;-61
2022/09/04 04:19:19;;;;;;;1.83;1.20;;;13.90;99.90;;;;;;5072656;28;20580;-61
2022/09/04 04:22:00;;;;;;;1.80;1.17;;;14.00;99.90;;;;;;5072523;28;20443;-61
2022/09/04 04:24:40;;;;;;;1.23;1.10;;;14.10;99.90;;;;;;5072377;28;20457;-61
2022/09/04 04:27:15;;;;;;;1.50;1.40;;;14.20;99.90;;;;;;5072675;28;20809;-61
2022/09/04 04:29:55;;;;;;;2.03;1.20;;;14.20;99.90;;;;;;5072538;28;20879;-61
2022/09/04 04:32:42;;;;;;;1.93;1.00;;;14.10;99.90;;;;;;5075757;28;20849;-61
2022/09/04 04:35:19;;;;;;;1.13;1.03;;;14.00;99.90;;;;;;5076188;28;20973;-61
2022/09/04 04:37:58;;;;;;;1.40;1.30;;;13.80;99.90;;;;;;5076280;28;20446;-61
2022/09/04 04:40:34;;;;;;;1.40;1.10;;;13.90;99.90;;;;;;5076191;28;20447;-60
2022/09/04 04:43:10;;;;;;;1.10;1.00;;;13.70;99.90;;;;;;5076032;28;20457;-60
2022/09/04 04:45:51;;;;;;;1.30;1.20;;;13.80;99.90;;;;;;5076246;28;20447;-60
2022/09/04 04:48:43;;;;;;;1.47;1.37;;;13.90;99.90;;;;;;5075932;28;20475;-60
2022/09/04 04:51:25;;;;;;;1.47;0.97;;;13.70;99.90;;;;;;5075942;28;20443;-60
2022/09/04 04:53:58;;;;;;;1.57;1.17;;;13.90;99.90;;;;;;5076059;28;20854;-60
2022/09/04 04:56:31;;;;;;;1.10;1.00;;;14.00;99.90;;;;;;5075771;28;21004;-61
2022/09/04 04:59:19;;;;;;;1.40;1.20;;;14.10;99.90;;;;;;5075912;28;20451;-61
2022/09/04 05:01:56;;;;;;;1.30;1.20;;;14.00;99.90;;;;;;5075776;28;20453;-61
2022/09/04 05:04:28;;;;;;;1.93;1.20;;;13.90;99.90;;;;;;5075868;28;20550;-61
2022/09/04 05:07:03;;;;;;;1.30;1.20;;;13.80;99.90;;;;;;5075632;28;20935;-61
2022/09/04 05:09:36;;;;;;;1.10;1.00;;;13.70;99.90;;;;;;5075570;28;20977;-61
2022/09/04 05:12:11;;;;;;;2.30;1.60;;;13.80;99.90;;;;;;5075602;28;20482;-61
2022/09/04 05:14:47;;;;;;;1.43;1.10;;;13.80;99.90;;;;;;5075335;28;20482;-61
2022/09/04 05:17:22;;;;;;;1.50;1.23;;;13.70;99.90;;;;;;5075584;28;20443;-61
2022/09/04 05:19:55;;;;;;;1.17;1.07;;;14.00;99.90;;;;;;5075341;28;20950;-61
2022/09/04 05:22:30;;;;;;;4.50;1.20;;;13.90;99.90;;;;;;5075829;28;20542;-61
2022/09/04 05:25:09;;;;;;;1.40;1.17;;;13.80;99.90;;;;;;5075241;28;20446;-61
2022/09/04 05:27:47;;;;;;;1.90;1.40;;;13.70;99.90;;;;;;5075693;28;20451;-61
2022/09/04 05:30:19;;;;;;;1.40;1.03;;;13.80;99.90;;;;;;5075328;28;20814;-61
2022/09/04 05:32:55;;;;;;;1.40;1.30;;;13.90;99.90;;;;;;5075152;28;20475;-61
2022/09/04 05:35:30;;;;;;;1.20;1.10;;;14.00;99.90;;;;;;5075019;28;20455;-61
2022/09/04 05:38:04;;;;;;;2.33;1.50;;;14.10;99.90;;;;;;5075247;28;20447;-61
2022/09/04 05:40:38;;;;;;;1.30;1.20;;;14.30;99.90;;;;;;5075194;28;20538;-61
2022/09/04 05:43:19;;;;;;;1.40;1.30;;;14.50;99.90;;;;;;5074591;28;20470;-61
2022/09/04 05:45:54;;;;;;;1.37;1.27;;;14.40;99.90;;;;;;5074899;28;20451;-61
2022/09/04 05:48:25;;;;;;;1.67;1.20;;;14.30;99.90;;;;;;5074856;28;20475;-61
2022/09/04 05:51:11;;;;;;;1.43;1.23;;;14.30;99.90;;;;;;5074979;28;20573;-61
2022/09/04 05:53:55;;;;;;;1.40;1.30;;;14.40;99.90;;;;;;5074792;28;20475;-61
2022/09/04 05:56:50;;;;;;;1.20;1.10;;;14.30;99.90;;;;;;5074686;28;20458;-61
2022/09/04 05:59:47;;;;;;;2.27;1.57;;;14.50;99.90;;;;;;5074767;28;20447;-61
2022/09/04 06:02:44;;;;;;;2.10;1.10;;;14.50;99.90;;;;;;5074503;28;20447;-61
2022/09/04 06:05:21;;;;;;;1.80;1.30;;;14.50;99.90;;;;;;5057038;28;20526;-61
2022/09/04 06:07:57;;;;;;;1.20;1.10;;;14.80;99.90;;;;;;5074594;28;20788;-61
2022/09/04 06:10:34;;;;;;;1.80;1.60;;;15.10;99.90;;;;;;5074401;28;20549;-61
2022/09/04 06:13:31;;;;;;;1.50;1.33;;;14.90;99.90;;;;;;5074512;28;20481;-61
2022/09/04 06:16:17;;;;;;;1.27;1.13;;;15.00;99.90;;;;;;5059707;28;20833;-61
2022/09/04 06:18:59;;;;;;;1.40;1.10;;;14.90;99.90;;;;;;5074229;28;20453;-61
2022/09/04 06:21:55;;;;;;;1.90;1.43;;;14.80;99.90;;;;;;5074348;28;20855;-61
2022/09/04 06:24:35;;;;;;;1.30;1.10;;;14.90;99.90;;;;;;5071511;28;20462;-61
2022/09/04 06:27:24;;;;;;;4.03;1.40;;;15.00;99.90;;;;;;5074182;28;20451;-61
2022/09/04 06:30:03;;;;;;;1.43;1.27;;;15.10;99.90;;;;;;5074204;28;20451;-61
2022/09/04 06:32:56;;;;;;;1.80;1.57;;;15.20;99.90;;;;;;5074128;28;20458;-61
2022/09/04 06:35:35;;;;;;;1.50;1.40;;;15.00;99.90;;;;;;5073937;28;20795;-61
2022/09/04 06:38:21;;;;;;;1.63;1.53;;;15.00;99.90;;;;;;5073862;28;20930;-61
2022/09/04 06:41:01;;;;;;;3.10;1.83;;;15.10;99.90;;;;;;5073853;28;20974;-61
2022/09/04 06:43:42;;;;;;;1.93;1.83;;;15.30;99.90;;;;;;5073835;28;20486;-61
2022/09/04 06:46:19;;;;;;;1.50;1.33;;;15.50;99.90;;;;;;5073629;28;20860;-61
2022/09/04 06:48:55;;;;;;;1.60;1.50;;;15.80;99.90;;;;;;5073365;28;20993;-61
2022/09/04 06:51:34;;;;;;;1.33;1.23;;;15.90;99.90;;;;;;5073638;28;20474;-61
2022/09/04 06:54:15;;;;;;;3.00;1.60;;;15.70;99.90;;;;;;5072894;28;20474;-61
2022/09/04 06:57:04;;;;;;;1.50;1.40;;;15.80;99.90;;;;;;5073522;28;20469;-61
2022/09/04 06:59:44;;;;;;;1.60;1.50;;;16.00;99.90;;;;;;5073660;28;20570;-61
2022/09/04 07:02:23;;;;;;;2.70;1.90;;;16.10;99.90;;;;;;5073479;28;20542;-61
2022/09/04 07:05:02;;;;;;;2.67;1.63;;;16.20;99.90;;;;;;5073412;28;20459;-61
2022/09/04 07:07:36;;;;;;;3.00;2.00;;;16.30;99.90;;;;;;5073533;28;20538;-61
2022/09/04 07:10:07;;;;;;;2.30;1.83;;;16.40;99.90;;;;;;5073319;28;20443;-61
2022/09/04 07:12:54;;;;;;;2.77;2.30;;;16.50;99.90;;;;;;5073227;28;20530;-61
2022/09/04 07:15:43;;;;;;;1.70;1.60;;;16.60;99.90;;;;;;5073176;28;20455;-61
2022/09/04 07:18:28;;;;;;;5.30;1.90;;;16.70;99.90;;;;;;5073404;28;20946;-61
2022/09/04 07:21:01;;;;;;;2.90;2.10;;;16.70;99.90;;;;;;5072848;28;20934;-63
2022/09/04 07:23:38;;;;;;;1.60;1.50;;;16.80;99.90;;;;;;5073001;28;20483;-61
2022/09/04 07:26:16;;;;;;;2.20;2.10;;;17.10;99.90;;;;;;5073299;28;20539;-61
2022/09/04 07:28:59;;;;;;;2.80;2.20;;;17.10;99.90;;;;;;5073173;28;20447;-61
2022/09/04 07:31:30;;;;;;;3.20;2.00;;;16.90;99.90;;;;;;5073026;28;20521;-60
2022/09/04 07:34:03;;;;;;;2.40;2.07;;;17.00;99.90;;;;;;5072857;28;20472;-60
2022/09/04 07:36:38;;;;;;;2.20;2.00;;;17.20;99.90;;;;;;5073190;28;20454;-60
2022/09/04 07:39:12;;;;;;;2.53;2.10;;;17.10;99.90;;;;;;5072980;28;20447;-61
2022/09/04 07:41:44;;;;;;;4.17;2.40;;;17.40;99.90;;;;;;5072929;28;20465;-61
2022/09/04 07:44:18;;;;;;;2.87;2.33;;;17.60;99.90;;;;;;5072922;28;20486;-61
2022/09/04 07:46:52;;;;;;;4.77;2.50;;;17.60;99.90;;;;;;5072762;28;20489;-61
2022/09/04 07:49:23;;;;;;;2.90;2.53;;;17.60;99.90;;;;;;5072718;28;20467;-61
2022/09/04 07:51:55;;;;;;;2.40;2.20;;;17.70;99.90;;;;;;5072721;28;20946;-61
2022/09/04 07:54:46;;;;;;;2.20;2.00;;;17.70;99.90;;;;;;5072726;28;20475;-61
2022/09/04 07:57:39;;;;;;;4.73;2.43;;;17.50;99.90;;;;;;5067493;28;20444;-60
2022/09/04 08:00:08;;;;;;;3.60;2.23;;;17.50;99.90;;;;;;5070807;28;20538;-61
2022/09/04 08:02:55;;;;;;;2.43;2.30;;;17.70;99.90;;;;;;5072698;28;20451;-61
2022/09/04 08:05:29;;;;;;;2.50;2.30;;;17.70;99.90;;;;;;5074526;28;20447;-60
2022/09/04 08:08:26;;;;;;;6.83;2.50;;;17.90;99.90;;;;;;5076961;28;20451;-61
2022/09/04 08:11:25;;;;;;;2.83;2.63;;;18.10;99.90;;;;;;5076809;28;20444;-61
2022/09/04 08:14:17;;;;;;;3.17;2.80;;;18.10;99.90;;;;;;5051948;28;20569;-61
2022/09/04 08:16:54;;;;;;;2.60;2.40;;;18.30;99.90;;;;;;5070778;28;20443;-60
2022/09/04 08:19:40;;;;;;;3.10;2.80;;;18.50;99.90;;;;;;5076688;28;20446;-60
2022/09/04 08:22:12;;;;;;;2.43;2.20;;;18.40;99.90;;;;;;5076414;28;20453;-60
2022/09/04 08:25:15;;;;;;;2.47;2.27;;;18.50;99.90;;;;;;5076635;28;20454;-60
2022/09/04 08:27:58;;;;;;;2.27;2.17;;;18.70;99.90;;;;;;5072808;28;20444;-60
2022/09/04 08:30:27;;;;;;;2.50;2.30;;;18.70;99.90;;;;;;5076246;28;20453;-60
2022/09/04 08:33:22;;;;;;;2.40;2.30;;;19.00;99.90;;;;;;5076375;28;20537;-61
2022/09/04 08:35:59;;;;;;;2.80;2.53;;;18.90;99.90;;;;;;5076321;28;20482;-61
2022/09/04 08:38:44;;;;;;;3.20;2.67;;;19.10;99.90;;;;;;5076153;28;20447;-61
2022/09/04 08:41:44;;;;;;;2.30;2.20;;;19.30;99.90;;;;;;5076370;28;20482;-61
2022/09/04 08:44:43;;;;;;;2.60;2.40;;;19.20;99.90;;;;;;5058661;28;20447;-60
2022/09/04 08:47:58;;;;;;;2.60;2.40;;;19.60;99.90;;;;;;5075928;28;20536;-61
2022/09/04 08:50:41;;;;;;;2.60;2.40;;;19.70;99.90;;;;;;5076058;28;20576;-62
2022/09/04 08:53:32;;;;;;;2.73;2.20;;;19.70;99.90;;;;;;5075818;28;20453;-60
2022/09/04 08:56:21;;;;;;;3.10;2.67;;;19.90;99.90;;;;;;5055589;28;20534;-63
2022/09/04 08:59:25;;;;;;;2.30;2.10;;;20.00;99.90;;;;;;5075917;28;20447;-62
2022/09/04 09:02:27;;;;;;;6.70;2.70;;;20.10;99.90;;;;;;5075952;28;20475;-61
2022/09/04 09:05:21;;;;;;;2.70;2.50;;;20.40;99.90;;;;;;5073040;28;20455;-60
2022/09/04 09:08:24;;;;;;;2.13;1.80;;;20.40;99.90;;;;;;5075570;28;20450;-60
2022/09/04 09:11:06;;;;;;;2.23;1.90;;;20.50;99.90;;;;;;5075875;28;20451;-60
2022/09/04 09:13:50;;;;;;;3.00;2.53;;;20.50;99.90;;;;;;5075479;28;20485;-61
2022/09/04 09:16:21;;;;;;;3.00;1.97;;;20.50;99.90;;;;;;5074682;28;20443;-62
2022/09/04 09:19:08;;;;;;;1.93;1.83;;;20.30;99.90;;;;;;5075628;28;20443;-61
2022/09/04 09:21:43;;;;;;;2.57;2.40;;;20.30;99.90;;;;;;5075486;28;20447;-62
2022/09/04 09:24:42;;;;;;;4.93;2.77;;;20.50;99.90;;;;;;5075351;28;20443;-62
2022/09/04 09:27:37;;;;;;;2.00;1.87;;;20.60;99.90;;;;;;5075308;28;20961;-62
2022/09/04 09:30:08;;;;;;;1.97;1.80;;;20.70;99.90;;;;;;5075372;28;20457;-62
2022/09/04 09:33:11;;;;;;;1.80;1.70;;;21.00;99.90;;;;;;5075110;28;20818;-62
2022/09/04 09:36:06;;;;;;;5.40;2.00;;;20.60;99.90;;;;;;5075251;28;20483;-62
2022/09/04 09:39:10;;;;;;;2.43;2.23;;;20.60;99.90;;;;;;5075069;28;20457;-61
2022/09/04 09:42:19;;;;;;;2.07;1.87;;;20.60;99.90;;;;;;5075042;28;20530;-62
2022/09/04 09:45:18;;;;;;;7.80;2.30;;;20.90;99.90;;;;;;5074785;28;20462;-62
2022/09/04 09:48:06;;;;;;;2.80;2.20;;;21.10;99.90;;;;;;5074335;28;20562;-62
2022/09/04 09:51:11;;;;;;;2.43;1.50;;;21.00;99.90;;;;;;5074973;28;20479;-62
2022/09/04 09:54:19;;;;;;;1.97;1.87;;;21.20;99.90;;;;;;5074696;28;20447;-62
2022/09/04 09:57:21;;;;;;;2.00;1.80;;;21.40;99.90;;;;;;5063230;28;20465;-62
2022/09/04 10:00:10;;;;;;;2.87;2.17;;;21.80;99.90;;;;;;5074621;28;20447;-62
2022/09/04 10:03:03;;;;;;;2.10;2.00;;;21.60;99.90;;;;;;5074453;28;20447;-60
2022/09/04 10:05:50;;;;;;;3.03;2.03;;;21.50;99.90;;;;;;5074592;28;20454;-62
2022/09/04 10:08:48;;;;;;;2.30;2.10;;;21.50;99.90;;;;;;5074352;28;20455;-62
2022/09/04 10:11:42;;;;;;;3.40;2.23;;;21.40;99.90;;;;;;5074504;28;20450;-62
2022/09/04 10:14:52;;;;;;;2.33;2.13;;;21.80;99.90;;;;;;5074252;28;20481;-62
2022/09/04 10:17:54;;;;;;;2.67;1.93;;;21.90;99.90;;;;;;5063769;28;20458;-62
2022/09/04 10:20:52;;;;;;;8.90;2.40;;;21.70;99.90;;;;;;5074251;28;20909;-62
2022/09/04 10:23:33;;;;;;;1.90;1.80;;;22.10;99.90;;;;;;5037939;28;20454;-62
2022/09/04 10:26:28;;;;;;;3.27;1.63;;;22.30;99.90;;;;;;5074080;28;20969;-62
2022/09/04 10:29:27;;;;;;;2.00;1.90;;;22.40;99.90;;;;;;5072955;28;20872;-62
2022/09/04 10:32:15;;;;;;;3.57;2.63;;;22.50;99.90;;;;;;5073904;28;20538;-62
2022/09/04 10:35:02;;;;;;;3.17;2.00;;;22.00;99.90;;;;;;5051114;28;20559;-62
2022/09/04 10:37:47;;;;;;;5.60;2.43;;;21.90;99.90;;;;;;5073840;28;20454;-62
2022/09/04 10:40:37;;;;;;;2.30;2.20;;;22.00;99.90;;;;;;5073874;28;20453;-62
2022/09/04 10:43:21;;;;;;;2.10;2.00;;;22.30;99.90;;;;;;5073520;28;20451;-62
2022/09/04 10:45:57;;;;;;;7.83;2.57;;;22.40;99.90;;;;;;5073597;28;20447;-62
2022/09/04 10:48:52;;;;;;;1.73;1.63;;;22.40;99.90;;;;;;5073588;28;20481;-62
2022/09/04 10:51:43;;;;;;;2.10;1.90;;;22.50;99.90;;;;;;5073660;28;20439;-62
2022/09/04 10:54:43;;;;;;;3.47;2.23;;;22.40;99.90;;;;;;5066944;28;20477;-62
2022/09/04 10:57:24;;;;;;;2.50;2.30;;;22.90;99.90;;;;;;5073592;28;20497;-62
2022/09/04 11:00:05;;;;;;;7.57;2.20;;;22.70;99.90;;;;;;5073506;28;20470;-62
2022/09/04 11:03:16;;;;;;;1.80;1.70;;;22.80;99.90;;;;;;5073689;28;20435;-62
2022/09/04 11:06:09;;;;;;;2.20;2.10;;;23.10;99.90;;;;;;5073417;28;20871;-60
2022/09/04 11:08:54;;;;;;;2.23;2.03;;;23.10;99.90;;;;;;5073222;28;20439;-60
2022/09/04 11:11:39;;;;;;;2.27;2.07;;;23.60;99.90;;;;;;5073490;28;20454;-61
2022/09/04 11:14:31;;;;;;;2.03;1.93;;;23.70;99.90;;;;;;5073149;28;20447;-61
2022/09/04 11:17:27;;;;;;;1.90;1.80;;;23.40;99.90;;;;;;5073075;28;20447;-61
2022/09/04 11:20:26;;;;;;;2.47;2.30;;;23.00;99.90;;;;;;5073256;28;20455;-61
2022/09/04 11:23:23;;;;;;;2.27;1.90;;;23.00;99.90;;;;;;5073267;28;20878;-61
2022/09/04 11:26:28;;;;;;;5.30;2.20;;;23.10;99.90;;;;;;5073277;28;20513;-61
2022/09/04 11:29:17;;;;;;;1.53;1.43;;;23.00;99.90;;;;;;5073028;28;20454;-61
2022/09/04 11:32:16;;;;;;;1.80;1.70;;;22.80;99.90;;;;;;5072934;28;20949;-61
2022/09/04 11:35:12;;;;;;;2.17;1.63;;;23.00;99.90;;;;;;5048246;28;20466;-61
2022/09/04 11:37:58;;;;;;;1.60;1.50;;;23.40;99.90;;;;;;5072878;28;20455;-61
2022/09/04 11:40:57;;;;;;;2.73;2.03;;;23.40;99.90;;;;;;5072761;28;20469;-61
2022/09/04 11:43:41;;;;;;;1.90;1.80;;;23.60;99.90;;;;;;5072950;28;20792;-61
2022/09/04 11:46:33;;;;;;;1.90;1.80;;;24.00;99.90;;;;;;5072788;28;20447;-61
2022/09/04 11:49:20;;;;;;;2.43;1.90;;;23.70;99.20;;;;;;5072577;28;20475;-61
2022/09/04 11:52:09;;;;;;;3.00;1.63;;;23.70;99.80;;;;;;5072772;28;20435;-61
2022/09/04 11:55:05;;;;;;;2.23;2.07;;;23.70;99.60;;;;;;5072575;28;20575;-61
2022/09/04 11:57:43;;;;;;;2.43;2.10;;;23.70;99.70;;;;;;5072906;28;20447;-61
2022/09/04 12:00:14;;;;;;;1.70;1.60;;;23.50;99.80;;;;;;5072872;28;20447;-61
2022/09/04 12:03:15;;;;;;;1.80;1.70;;;23.90;99.40;;;;;;5072550;28;20515;-61
2022/09/04 12:06:06;;;;;;;2.20;2.00;;;23.70;98.60;;;;;;5072747;28;20807;-61
2022/09/04 12:08:53;;;;;;;1.83;1.70;;;23.70;97.90;;;;;;5072658;28;20450;-61
2022/09/04 12:11:53;;;;;;;1.70;1.57;;;23.40;97.60;;;;;;5072794;28;20449;-61
2022/09/04 12:14:37;;;;;;;1.77;1.67;;;23.50;98.20;;;;;;5072442;28;20819;-61
2022/09/04 12:17:28;;;;;;;1.83;1.57;;;23.80;98.00;;;;;;5072590;28;20469;-61
2022/09/04 12:20:22;;;;;;;2.10;1.90;;;24.00;98.30;;;;;;5072718;28;20473;-61
2022/09/04 12:23:32;;;;;;;3.07;2.23;;;24.00;97.00;;;;;;5072529;28;20447;-61
2022/09/04 12:26:28;;;;;;;1.70;1.60;;;23.30;96.00;;;;;;5067532;28;20451;-61
2022/09/04 12:29:13;;;;;;;2.07;1.97;;;23.40;95.60;;;;;;5072510;28;20450;-61
2022/09/04 12:32:12;;;;;;;2.00;1.90;;;23.40;96.00;;;;;;5072405;28;20448;-61
2022/09/04 12:34:54;;;;;;;2.23;2.03;;;23.70;96.70;;;;;;5070252;28;20447;-61
2022/09/04 12:37:58;;;;;;;2.77;2.23;;;24.00;96.30;;;;;;5072408;28;20447;-61
2022/09/04 12:40:40;;;;;;;3.63;1.90;;;23.90;96.50;;;;;;5072165;28;20447;-61
2022/09/04 12:43:19;;;;;;;2.00;1.90;;;24.10;96.20;;;;;;5072236;28;20780;-61
2022/09/04 12:45:54;;;;;;;1.97;1.77;;;24.20;96.30;;;;;;5072204;28;20504;-61
2022/09/04 12:48:32;;;;;;;5.50;1.77;;;24.10;95.80;;;;;;5071983;28;20496;-61
2022/09/04 12:51:08;;;;;;;1.70;1.60;;;24.30;95.50;;;;;;5072409;28;20456;-61
2022/09/04 12:54:14;;;;;;;4.40;1.60;;;24.40;95.10;;;;;;5075674;28;20457;-61
2022/09/04 12:56:48;;;;;;;2.33;1.87;;;24.50;94.50;;;;;;5054746;28;20528;-61
2022/09/04 12:59:28;;;;;;;1.87;1.70;;;24.50;94.60;;;;;;5075773;28;20454;-61
2022/09/04 13:02:03;;;;;;;1.93;1.83;;;24.30;95.10;;;;;;5075935;28;20543;-61
2022/09/04 13:04:37;;;;;;;1.83;1.73;;;23.90;94.80;;;;;;5075550;28;20478;-61
2022/09/04 13:07:21;;;;;;;1.90;1.80;;;23.80;95.30;;;;;;5075477;28;20451;-61
2022/09/04 13:09:56;;;;;;;2.97;1.80;;;23.60;95.30;;;;;;5075439;28;21003;-61
2022/09/04 13:12:31;;;;;;;1.80;1.70;;;24.00;95.80;;;;;;5075642;28;20875;-61
2022/09/04 13:15:22;;;;;;;2.07;1.87;;;24.20;94.40;;;;;;5075475;28;20478;-61
2022/09/04 13:17:58;;;;;;;1.80;1.57;;;24.40;94.70;;;;;;5075424;28;20454;-61
2022/09/04 13:20:33;;;;;;;3.47;1.70;;;24.70;93.80;;;;;;5075570;28;20443;-61
2022/09/04 13:23:16;;;;;;;2.97;1.80;;;24.50;94.00;;;;;;5075487;28;20447;-61
2022/09/04 13:25:58;;;;;;;2.00;1.90;;;24.20;93.40;;;;;;5075354;28;20818;-61
2022/09/04 13:28:37;;;;;;;2.00;1.90;;;24.20;93.70;;;;;;5075482;28;20447;-61
2022/09/04 13:31:43;;;;;;;3.33;1.90;;;24.20;93.60;;;;;;5075434;28;20454;-61
2022/09/04 13:34:19;;;;;;;2.23;1.80;;;24.00;94.50;;;;;;5075124;28;20554;-61
2022/09/04 13:36:54;;;;;;;5.73;2.00;;;24.30;94.80;;;;;;5075319;28;20479;-61
2022/09/04 13:39:44;;;;;;;2.43;2.23;;;24.30;93.60;;;;;;5075014;28;20950;-61
2022/09/04 13:42:27;;;;;;;2.40;1.83;;;24.50;94.50;;;;;;5074760;28;20447;-61
2022/09/04 13:45:00;;;;;;;2.63;1.93;;;24.40;93.40;;;;;;5074810;28;20449;-61
2022/09/04 13:47:30;;;;;;;1.80;1.70;;;24.40;93.10;;;;;;5074906;28;20443;-61
2022/09/04 13:50:07;;;;;;;2.17;1.73;;;24.20;93.70;;;;;;5074890;28;20449;-61
2022/09/04 13:52:39;;;;;;;1.60;1.50;;;24.20;93.70;;;;;;5074911;28;21042;-61
2022/09/04 13:55:13;;;;;;;2.10;2.00;;;24.30;93.90;;;;;;5074632;28;20524;-61
2022/09/04 13:57:46;;;;;;;4.80;2.00;;;24.30;93.80;;;;;;5074590;28;20445;-61
2022/09/04 14:00:15;;;;;;;2.53;1.67;;;24.10;93.70;;;;;;5074726;28;20873;-61
2022/09/04 14:02:43;;;;;;;2.43;2.23;;;24.20;93.20;;;;;;5074328;28;20542;-61
2022/09/04 14:05:13;;;;;;;2.73;2.33;;;24.40;93.20;;;;;;5074285;28;20788;-61
2022/09/04 14:07:43;;;;;;;3.63;3.40;;;24.60;93.20;;;;;;5074158;28;20826;-61